sensor_id;sensor_type;location;lat;lon;timestamp;temperature;humidity
56162;DHT22;42045;52.986;6.014;2023-09-07T00:00:48;19.80;99.90
56162;DHT22;42045;52.986;6.014;2023-09-07T00:03:14;19.80;99.90
56162;DHT22;42045;52.986;6.014;2023-09-07T00:05:40;19.70;99.90
56162;DHT22;42045;52.986;6.014;2023-09-07T00:08:05;19.70;99.90
56162;DHT22;42045;52.986;6.014;2023-09-07T00:10:33;19.70;99.90
56162;DHT22;42045;52.986;6.014;2023-09-07T00:13:04;19.70;99.90
56162;DHT22;42045;52.986;6.014;2023-09-07T00:15:30;19.70;99.90
56162;DHT22;42045;52.986;6.014;2023-09-07T00:18:00;19.70;99.90
56162;DHT22;42045;52.986;6.014;2023-09-07T00:20:26;19.60;99.90
56162;DHT22;42045;52.986;6.014;2023-09-07T00:22:51;19.60;99.90
56162;DHT22;42045;52.986;6.014;2023-09-07T00:25:17;19.60;99.90
56162;DHT22;42045;52.986;6.014;2023-09-07T00:27:42;19.60;99.90
56162;DHT22;42045;52.986;6.014;2023-09-07T00:30:08;19.60;99.90
56162;DHT22;42045;52.986;6.014;2023-09-07T00:32:36;19.50;99.90
56162;DHT22;42045;52.986;6.014;2023-09-07T00:35:03;19.50;99.90
56162;DHT22;42045;52.986;6.014;2023-09-07T00:37:28;19.50;99.90
56162;DHT22;42045;52.986;6.014;2023-09-07T00:39:54;19.40;99.90
56162;DHT22;42045;52.986;6.014;2023-09-07T00:42:20;19.40;99.90
56162;DHT22;42045;52.986;6.014;2023-09-07T00:44:45;19.40;99.90
56162;DHT22;42045;52.986;6.014;2023-09-07T00:47:11;19.30;99.90
56162;DHT22;42045;52.986;6.014;2023-09-07T00:49:37;19.30;99.90
56162;DHT22;42045;52.986;6.014;2023-09-07T00:52:05;19.20;99.90
56162;DHT22;42045;52.986;6.014;2023-09-07T00:54:31;19.20;99.90
56162;DHT22;42045;52.986;6.014;2023-09-07T00:56:57;19.20;99.90
56162;DHT22;42045;52.986;6.014;2023-09-07T00:59:23;19.10;99.90
56162;DHT22;42045;52.986;6.014;2023-09-07T01:01:48;19.10;99.90
56162;DHT22;42045;52.986;6.014;2023-09-07T01:04:14;19.00;99.90
56162;DHT22;42045;52.986;6.014;2023-09-07T01:06:45;19.00;99.90
56162;DHT22;42045;52.986;6.014;2023-09-07T01:09:17;18.90;99.90
56162;DHT22;42045;52.986;6.014;2023-09-07T01:11:44;18.90;99.90
56162;DHT22;42045;52.986;6.014;2023-09-07T01:14:10;18.90;99.90
56162;DHT22;42045;52.986;6.014;2023-09-07T01:16:36;18.90;99.90
56162;DHT22;42045;52.986;6.014;2023-09-07T01:19:05;18.80;99.90
56162;DHT22;42045;52.986;6.014;2023-09-07T01:21:34;18.80;99.90
56162;DHT22;42045;52.986;6.014;2023-09-07T01:24:06;18.70;99.90
56162;DHT22;42045;52.986;6.014;2023-09-07T01:26:33;18.70;99.90
56162;DHT22;42045;52.986;6.014;2023-09-07T01:28:59;18.70;99.90
56162;DHT22;42045;52.986;6.014;2023-09-07T01:31:25;18.60;99.90
56162;DHT22;42045;52.986;6.014;2023-09-07T01:33:51;18.60;99.90
56162;DHT22;42045;52.986;6.014;2023-09-07T01:36:16;18.50;99.90
56162;DHT22;42045;52.986;6.014;2023-09-07T01:38:42;18.40;99.90
56162;DHT22;42045;52.986;6.014;2023-09-07T01:41:07;18.30;99.90
56162;DHT22;42045;52.986;6.014;2023-09-07T01:43:33;18.20;99.90
56162;DHT22;42045;52.986;6.014;2023-09-07T01:45:59;18.10;99.90
56162;DHT22;42045;52.986;6.014;2023-09-07T01:48:24;18.10;99.90
56162;DHT22;42045;52.986;6.014;2023-09-07T01:50:53;18.00;99.90
56162;DHT22;42045;52.986;6.014;2023-09-07T01:53:19;18.00;99.90
56162;DHT22;42045;52.986;6.014;2023-09-07T01:55:45;17.90;99.90
56162;DHT22;42045;52.986;6.014;2023-09-07T01:58:11;17.90;99.90
56162;DHT22;42045;52.986;6.014;2023-09-07T02:00:37;17.80;99.90
56162;DHT22;42045;52.986;6.014;2023-09-07T02:03:05;17.70;99.90
56162;DHT22;42045;52.986;6.014;2023-09-07T02:05:31;17.70;99.90
56162;DHT22;42045;52.986;6.014;2023-09-07T02:07:58;17.60;99.90
56162;DHT22;42045;52.986;6.014;2023-09-07T02:10:23;17.50;99.90
56162;DHT22;42045;52.986;6.014;2023-09-07T02:12:49;17.50;99.90
56162;DHT22;42045;52.986;6.014;2023-09-07T02:15:15;17.50;99.90
56162;DHT22;42045;52.986;6.014;2023-09-07T02:17:40;17.40;99.90
56162;DHT22;42045;52.986;6.014;2023-09-07T02:20:11;17.40;99.90
56162;DHT22;42045;52.986;6.014;2023-09-07T02:22:37;17.40;99.90
56162;DHT22;42045;52.986;6.014;2023-09-07T02:25:04;17.30;99.90
56162;DHT22;42045;52.986;6.014;2023-09-07T02:27:35;17.30;99.90
56162;DHT22;42045;52.986;6.014;2023-09-07T02:30:01;17.30;99.90
56162;DHT22;42045;52.986;6.014;2023-09-07T02:32:27;17.30;99.90
56162;DHT22;42045;52.986;6.014;2023-09-07T02:34:53;17.30;99.90
56162;DHT22;42045;52.986;6.014;2023-09-07T02:37:19;17.30;99.90
56162;DHT22;42045;52.986;6.014;2023-09-07T02:39:45;17.30;99.90
56162;DHT22;42045;52.986;6.014;2023-09-07T02:42:10;17.30;99.90
56162;DHT22;42045;52.986;6.014;2023-09-07T02:44:36;17.40;99.90
56162;DHT22;42045;52.986;6.014;2023-09-07T02:47:01;17.40;99.90
56162;DHT22;42045;52.986;6.014;2023-09-07T02:49:27;17.50;99.90
56162;DHT22;42045;52.986;6.014;2023-09-07T02:51:53;17.50;99.90
56162;DHT22;42045;52.986;6.014;2023-09-07T02:54:18;17.60;99.90
56162;DHT22;42045;52.986;6.014;2023-09-07T02:56:44;17.60;99.90
56162;DHT22;42045;52.986;6.014;2023-09-07T02:59:09;17.60;99.90
56162;DHT22;42045;52.986;6.014;2023-09-07T03:01:35;17.60;99.90
56162;DHT22;42045;52.986;6.014;2023-09-07T03:04:00;17.50;99.90
56162;DHT22;42045;52.986;6.014;2023-09-07T03:06:26;17.50;99.90
56162;DHT22;42045;52.986;6.014;2023-09-07T03:08:51;17.40;99.90
56162;DHT22;42045;52.986;6.014;2023-09-07T03:11:20;17.40;99.90
56162;DHT22;42045;52.986;6.014;2023-09-07T03:13:45;17.30;99.90
56162;DHT22;42045;52.986;6.014;2023-09-07T03:16:11;17.20;99.90
56162;DHT22;42045;52.986;6.014;2023-09-07T03:18:36;17.10;99.90
56162;DHT22;42045;52.986;6.014;2023-09-07T03:21:02;17.10;99.90
56162;DHT22;42045;52.986;6.014;2023-09-07T03:23:29;17.10;99.90
56162;DHT22;42045;52.986;6.014;2023-09-07T03:25:54;17.00;99.90
56162;DHT22;42045;52.986;6.014;2023-09-07T03:28:20;17.00;99.90
56162;DHT22;42045;52.986;6.014;2023-09-07T03:30:45;17.00;99.90
56162;DHT22;42045;52.986;6.014;2023-09-07T03:33:11;16.90;99.90
56162;DHT22;42045;52.986;6.014;2023-09-07T03:35:37;16.90;99.90
56162;DHT22;42045;52.986;6.014;2023-09-07T03:38:03;16.90;99.90
56162;DHT22;42045;52.986;6.014;2023-09-07T03:40:29;16.80;99.90
56162;DHT22;42045;52.986;6.014;2023-09-07T03:42:55;16.70;99.90
56162;DHT22;42045;52.986;6.014;2023-09-07T03:45:20;16.70;99.90
56162;DHT22;42045;52.986;6.014;2023-09-07T03:47:46;16.70;99.90
56162;DHT22;42045;52.986;6.014;2023-09-07T03:50:11;16.70;99.90
56162;DHT22;42045;52.986;6.014;2023-09-07T03:52:37;16.60;99.90
56162;DHT22;42045;52.986;6.014;2023-09-07T03:55:03;16.50;99.90
56162;DHT22;42045;52.986;6.014;2023-09-07T03:57:29;16.50;99.90
56162;DHT22;42045;52.986;6.014;2023-09-07T03:59:54;16.50;99.90
56162;DHT22;42045;52.986;6.014;2023-09-07T04:02:23;16.50;99.90
56162;DHT22;42045;52.986;6.014;2023-09-07T04:04:53;16.40;99.90
56162;DHT22;42045;52.986;6.014;2023-09-07T04:07:20;16.40;99.90
56162;DHT22;42045;52.986;6.014;2023-09-07T04:09:46;16.40;99.90
56162;DHT22;42045;52.986;6.014;2023-09-07T04:12:12;16.40;99.90
56162;DHT22;42045;52.986;6.014;2023-09-07T04:14:38;16.40;99.90
56162;DHT22;42045;52.986;6.014;2023-09-07T04:17:04;16.30;99.90
56162;DHT22;42045;52.986;6.014;2023-09-07T04:19:30;16.30;99.90
56162;DHT22;42045;52.986;6.014;2023-09-07T04:21:57;16.30;99.90
56162;DHT22;42045;52.986;6.014;2023-09-07T04:24:23;16.30;99.90
56162;DHT22;42045;52.986;6.014;2023-09-07T04:26:48;16.20;99.90
56162;DHT22;42045;52.986;6.014;2023-09-07T04:29:15;16.20;99.90
56162;DHT22;42045;52.986;6.014;2023-09-07T04:31:41;16.20;99.90
56162;DHT22;42045;52.986;6.014;2023-09-07T04:34:07;16.20;99.90
56162;DHT22;42045;52.986;6.014;2023-09-07T04:36:33;16.20;99.90
56162;DHT22;42045;52.986;6.014;2023-09-07T04:38:58;16.20;99.90
56162;DHT22;42045;52.986;6.014;2023-09-07T04:41:24;16.10;99.90
56162;DHT22;42045;52.986;6.014;2023-09-07T04:43:50;16.20;99.90
56162;DHT22;42045;52.986;6.014;2023-09-07T04:46:15;16.20;99.90
56162;DHT22;42045;52.986;6.014;2023-09-07T04:48:42;16.20;99.90
56162;DHT22;42045;52.986;6.014;2023-09-07T04:51:09;16.30;99.90
56162;DHT22;42045;52.986;6.014;2023-09-07T04:53:37;16.30;99.90
56162;DHT22;42045;52.986;6.014;2023-09-07T04:56:03;16.40;99.90
56162;DHT22;42045;52.986;6.014;2023-09-07T04:58:29;16.40;99.90
56162;DHT22;42045;52.986;6.014;2023-09-07T05:01:05;16.40;99.90
56162;DHT22;42045;52.986;6.014;2023-09-07T05:03:31;16.50;99.90
56162;DHT22;42045;52.986;6.014;2023-09-07T05:05:57;16.50;99.90
56162;DHT22;42045;52.986;6.014;2023-09-07T05:08:23;16.50;99.90
56162;DHT22;42045;52.986;6.014;2023-09-07T05:10:58;16.50;99.90
56162;DHT22;42045;52.986;6.014;2023-09-07T05:13:25;16.60;99.90
56162;DHT22;42045;52.986;6.014;2023-09-07T05:15:51;16.60;99.90
56162;DHT22;42045;52.986;6.014;2023-09-07T05:18:17;16.70;99.90
56162;DHT22;42045;52.986;6.014;2023-09-07T05:20:43;16.70;99.90
56162;DHT22;42045;52.986;6.014;2023-09-07T05:23:19;16.80;99.90
56162;DHT22;42045;52.986;6.014;2023-09-07T05:25:47;16.80;99.90
56162;DHT22;42045;52.986;6.014;2023-09-07T05:28:14;16.90;99.90
56162;DHT22;42045;52.986;6.014;2023-09-07T05:30:40;17.00;99.90
56162;DHT22;42045;52.986;6.014;2023-09-07T05:33:06;17.10;99.90
56162;DHT22;42045;52.986;6.014;2023-09-07T05:35:32;17.30;99.90
56162;DHT22;42045;52.986;6.014;2023-09-07T05:37:58;17.60;99.90
56162;DHT22;42045;52.986;6.014;2023-09-07T05:40:24;18.20;99.90
56162;DHT22;42045;52.986;6.014;2023-09-07T05:42:50;18.40;99.90
56162;DHT22;42045;52.986;6.014;2023-09-07T05:45:15;18.60;99.90
56162;DHT22;42045;52.986;6.014;2023-09-07T05:47:41;19.40;99.90
56162;DHT22;42045;52.986;6.014;2023-09-07T05:50:07;20.80;99.90
56162;DHT22;42045;52.986;6.014;2023-09-07T05:52:33;22.20;99.90
56162;DHT22;42045;52.986;6.014;2023-09-07T05:54:58;23.30;99.90
56162;DHT22;42045;52.986;6.014;2023-09-07T05:57:24;24.10;99.90
56162;DHT22;42045;52.986;6.014;2023-09-07T05:59:49;24.90;99.90
56162;DHT22;42045;52.986;6.014;2023-09-07T06:02:15;25.80;99.90
56162;DHT22;42045;52.986;6.014;2023-09-07T06:04:41;26.70;99.90
56162;DHT22;42045;52.986;6.014;2023-09-07T06:07:06;27.60;99.90
56162;DHT22;42045;52.986;6.014;2023-09-07T06:09:32;28.30;99.90
56162;DHT22;42045;52.986;6.014;2023-09-07T06:11:57;28.90;98.70
56162;DHT22;42045;52.986;6.014;2023-09-07T06:14:23;29.50;97.70
56162;DHT22;42045;52.986;6.014;2023-09-07T06:16:48;29.90;96.70
56162;DHT22;42045;52.986;6.014;2023-09-07T06:19:14;30.40;95.90
56162;DHT22;42045;52.986;6.014;2023-09-07T06:21:40;30.40;95.00
56162;DHT22;42045;52.986;6.014;2023-09-07T06:24:05;30.80;94.90
56162;DHT22;42045;52.986;6.014;2023-09-07T06:26:32;30.80;94.40
56162;DHT22;42045;52.986;6.014;2023-09-07T06:28:58;31.20;93.50
56162;DHT22;42045;52.986;6.014;2023-09-07T06:31:23;31.00;92.80
56162;DHT22;42045;52.986;6.014;2023-09-07T06:33:49;31.30;92.50
56162;DHT22;42045;52.986;6.014;2023-09-07T06:36:14;31.40;91.20
56162;DHT22;42045;52.986;6.014;2023-09-07T06:38:40;31.70;91.90
56162;DHT22;42045;52.986;6.014;2023-09-07T06:41:05;31.90;91.40
56162;DHT22;42045;52.986;6.014;2023-09-07T06:43:33;32.10;90.90
56162;DHT22;42045;52.986;6.014;2023-09-07T06:46:08;31.90;90.50
56162;DHT22;42045;52.986;6.014;2023-09-07T06:48:35;32.50;89.50
56162;DHT22;42045;52.986;6.014;2023-09-07T06:51:02;32.60;88.90
56162;DHT22;42045;52.986;6.014;2023-09-07T06:53:28;32.80;89.50
56162;DHT22;42045;52.986;6.014;2023-09-07T06:55:58;32.70;88.00
56162;DHT22;42045;52.986;6.014;2023-09-07T06:58:24;33.10;86.00
56162;DHT22;42045;52.986;6.014;2023-09-07T07:00:50;33.20;86.70
56162;DHT22;42045;52.986;6.014;2023-09-07T07:03:15;33.10;86.60
56162;DHT22;42045;52.986;6.014;2023-09-07T07:05:41;32.70;86.60
56162;DHT22;42045;52.986;6.014;2023-09-07T07:08:07;32.00;87.40
56162;DHT22;42045;52.986;6.014;2023-09-07T07:10:33;30.90;88.40
56162;DHT22;42045;52.986;6.014;2023-09-07T07:12:59;30.20;90.00
56162;DHT22;42045;52.986;6.014;2023-09-07T07:15:25;29.70;90.80
56162;DHT22;42045;52.986;6.014;2023-09-07T07:17:51;29.20;91.50
56162;DHT22;42045;52.986;6.014;2023-09-07T07:20:16;28.60;91.90
56162;DHT22;42045;52.986;6.014;2023-09-07T07:22:42;28.20;92.50
56162;DHT22;42045;52.986;6.014;2023-09-07T07:25:08;28.00;93.00
56162;DHT22;42045;52.986;6.014;2023-09-07T07:27:33;27.60;93.20
56162;DHT22;42045;52.986;6.014;2023-09-07T07:29:59;27.50;93.80
56162;DHT22;42045;52.986;6.014;2023-09-07T07:32:24;27.30;94.00
56162;DHT22;42045;52.986;6.014;2023-09-07T07:34:50;27.00;94.20
56162;DHT22;42045;52.986;6.014;2023-09-07T07:37:16;26.80;95.00
56162;DHT22;42045;52.986;6.014;2023-09-07T07:39:41;26.60;95.30
56162;DHT22;42045;52.986;6.014;2023-09-07T07:42:07;26.50;95.50
56162;DHT22;42045;52.986;6.014;2023-09-07T07:44:32;26.40;96.00
56162;DHT22;42045;52.986;6.014;2023-09-07T07:46:58;26.30;96.40
56162;DHT22;42045;52.986;6.014;2023-09-07T07:49:24;26.20;96.20
56162;DHT22;42045;52.986;6.014;2023-09-07T07:51:50;26.10;96.30
56162;DHT22;42045;52.986;6.014;2023-09-07T07:54:16;25.90;96.70
56162;DHT22;42045;52.986;6.014;2023-09-07T07:56:42;25.80;97.60
56162;DHT22;42045;52.986;6.014;2023-09-07T07:59:07;25.80;97.20
56162;DHT22;42045;52.986;6.014;2023-09-07T08:01:33;25.80;97.00
56162;DHT22;42045;52.986;6.014;2023-09-07T08:03:59;25.70;98.00
56162;DHT22;42045;52.986;6.014;2023-09-07T08:06:24;25.70;97.20
56162;DHT22;42045;52.986;6.014;2023-09-07T08:08:50;25.60;97.30
56162;DHT22;42045;52.986;6.014;2023-09-07T08:11:16;25.30;96.80
56162;DHT22;42045;52.986;6.014;2023-09-07T08:13:42;25.50;97.50
56162;DHT22;42045;52.986;6.014;2023-09-07T08:16:10;25.60;97.30
56162;DHT22;42045;52.986;6.014;2023-09-07T08:18:36;25.50;97.10
56162;DHT22;42045;52.986;6.014;2023-09-07T08:21:02;25.40;97.70
56162;DHT22;42045;52.986;6.014;2023-09-07T08:23:27;25.30;97.70
56162;DHT22;42045;52.986;6.014;2023-09-07T08:25:53;25.50;97.50
56162;DHT22;42045;52.986;6.014;2023-09-07T08:28:19;25.60;97.50
56162;DHT22;42045;52.986;6.014;2023-09-07T08:30:49;25.40;97.00
56162;DHT22;42045;52.986;6.014;2023-09-07T08:33:14;25.60;97.20
56162;DHT22;42045;52.986;6.014;2023-09-07T08:35:40;25.60;97.50
56162;DHT22;42045;52.986;6.014;2023-09-07T08:38:10;25.60;97.20
56162;DHT22;42045;52.986;6.014;2023-09-07T08:40:36;25.70;97.90
56162;DHT22;42045;52.986;6.014;2023-09-07T08:43:04;25.70;97.30
56162;DHT22;42045;52.986;6.014;2023-09-07T08:45:30;25.80;98.30
56162;DHT22;42045;52.986;6.014;2023-09-07T08:47:59;26.00;98.50
56162;DHT22;42045;52.986;6.014;2023-09-07T08:50:25;26.10;98.30
56162;DHT22;42045;52.986;6.014;2023-09-07T08:52:52;26.20;98.40
56162;DHT22;42045;52.986;6.014;2023-09-07T08:55:19;26.20;97.70
56162;DHT22;42045;52.986;6.014;2023-09-07T08:57:45;26.30;98.20
56162;DHT22;42045;52.986;6.014;2023-09-07T09:00:11;26.50;98.30
56162;DHT22;42045;52.986;6.014;2023-09-07T09:02:42;26.40;97.40
56162;DHT22;42045;52.986;6.014;2023-09-07T09:05:09;26.40;97.30
56162;DHT22;42045;52.986;6.014;2023-09-07T09:07:37;26.20;96.30
56162;DHT22;42045;52.986;6.014;2023-09-07T09:10:07;26.00;96.70
56162;DHT22;42045;52.986;6.014;2023-09-07T09:12:33;25.90;97.20
56162;DHT22;42045;52.986;6.014;2023-09-07T09:14:59;25.90;97.40
56162;DHT22;42045;52.986;6.014;2023-09-07T09:17:27;25.90;96.80
56162;DHT22;42045;52.986;6.014;2023-09-07T09:19:52;25.90;97.10
56162;DHT22;42045;52.986;6.014;2023-09-07T09:22:18;25.90;97.40
56162;DHT22;42045;52.986;6.014;2023-09-07T09:24:47;26.10;97.70
56162;DHT22;42045;52.986;6.014;2023-09-07T09:27:13;26.20;97.60
56162;DHT22;42045;52.986;6.014;2023-09-07T09:29:39;26.20;97.40
56162;DHT22;42045;52.986;6.014;2023-09-07T09:32:06;26.10;96.80
56162;DHT22;42045;52.986;6.014;2023-09-07T09:34:33;26.20;97.10
56162;DHT22;42045;52.986;6.014;2023-09-07T09:36:59;26.20;96.80
56162;DHT22;42045;52.986;6.014;2023-09-07T09:39:25;26.30;96.90
56162;DHT22;42045;52.986;6.014;2023-09-07T09:41:52;26.30;97.10
56162;DHT22;42045;52.986;6.014;2023-09-07T09:44:20;26.30;96.50
56162;DHT22;42045;52.986;6.014;2023-09-07T09:46:47;26.20;97.20
56162;DHT22;42045;52.986;6.014;2023-09-07T09:49:14;26.30;97.30
56162;DHT22;42045;52.986;6.014;2023-09-07T09:51:40;26.30;97.40
56162;DHT22;42045;52.986;6.014;2023-09-07T09:54:09;26.30;97.70
56162;DHT22;42045;52.986;6.014;2023-09-07T09:56:35;26.50;97.30
56162;DHT22;42045;52.986;6.014;2023-09-07T09:59:01;26.70;97.30
56162;DHT22;42045;52.986;6.014;2023-09-07T10:01:27;26.80;96.90
56162;DHT22;42045;52.986;6.014;2023-09-07T10:03:55;27.00;97.30
56162;DHT22;42045;52.986;6.014;2023-09-07T10:06:26;27.10;95.70
56162;DHT22;42045;52.986;6.014;2023-09-07T10:08:58;27.20;95.90
56162;DHT22;42045;52.986;6.014;2023-09-07T10:11:31;27.20;96.10
56162;DHT22;42045;52.986;6.014;2023-09-07T10:13:58;27.20;96.60
56162;DHT22;42045;52.986;6.014;2023-09-07T10:16:24;27.20;96.60
56162;DHT22;42045;52.986;6.014;2023-09-07T10:18:49;27.20;96.80
56162;DHT22;42045;52.986;6.014;2023-09-07T10:21:15;27.40;97.50
56162;DHT22;42045;52.986;6.014;2023-09-07T10:23:42;27.40;96.90
56162;DHT22;42045;52.986;6.014;2023-09-07T10:26:12;27.40;96.50
56162;DHT22;42045;52.986;6.014;2023-09-07T10:28:39;27.50;96.90
56162;DHT22;42045;52.986;6.014;2023-09-07T10:31:14;27.60;96.90
56162;DHT22;42045;52.986;6.014;2023-09-07T10:33:40;27.50;95.80
56162;DHT22;42045;52.986;6.014;2023-09-07T10:36:06;27.60;96.40
56162;DHT22;42045;52.986;6.014;2023-09-07T10:38:33;27.50;95.20
56162;DHT22;42045;52.986;6.014;2023-09-07T10:41:03;27.60;95.20
56162;DHT22;42045;52.986;6.014;2023-09-07T10:43:30;27.70;94.80
56162;DHT22;42045;52.986;6.014;2023-09-07T10:45:57;27.70;94.80
56162;DHT22;42045;52.986;6.014;2023-09-07T10:48:33;27.80;95.00
56162;DHT22;42045;52.986;6.014;2023-09-07T10:51:00;27.80;95.00
56162;DHT22;42045;52.986;6.014;2023-09-07T10:53:30;27.90;95.10
56162;DHT22;42045;52.986;6.014;2023-09-07T10:56:04;28.00;94.90
56162;DHT22;42045;52.986;6.014;2023-09-07T10:58:34;28.10;95.00
56162;DHT22;42045;52.986;6.014;2023-09-07T11:01:01;28.20;94.40
56162;DHT22;42045;52.986;6.014;2023-09-07T11:03:28;28.20;94.90
56162;DHT22;42045;52.986;6.014;2023-09-07T11:05:57;28.20;94.80
56162;DHT22;42045;52.986;6.014;2023-09-07T11:08:24;28.30;93.90
56162;DHT22;42045;52.986;6.014;2023-09-07T11:10:50;28.20;93.30
56162;DHT22;42045;52.986;6.014;2023-09-07T11:13:17;28.10;92.90
56162;DHT22;42045;52.986;6.014;2023-09-07T11:15:43;28.10;93.10
56162;DHT22;42045;52.986;6.014;2023-09-07T11:18:09;28.10;93.40
56162;DHT22;42045;52.986;6.014;2023-09-07T11:20:36;28.20;93.80
56162;DHT22;42045;52.986;6.014;2023-09-07T11:23:02;28.30;94.10
56162;DHT22;42045;52.986;6.014;2023-09-07T11:25:35;28.30;93.80
56162;DHT22;42045;52.986;6.014;2023-09-07T11:28:02;28.30;93.80
56162;DHT22;42045;52.986;6.014;2023-09-07T11:30:28;28.40;94.70
56162;DHT22;42045;52.986;6.014;2023-09-07T11:35:27;28.50;92.90
56162;DHT22;42045;52.986;6.014;2023-09-07T11:37:53;28.60;93.60
56162;DHT22;42045;52.986;6.014;2023-09-07T11:40:19;28.60;93.70
56162;DHT22;42045;52.986;6.014;2023-09-07T11:42:44;28.70;94.30
56162;DHT22;42045;52.986;6.014;2023-09-07T11:45:10;28.60;93.70
56162;DHT22;42045;52.986;6.014;2023-09-07T11:47:36;28.60;93.60
56162;DHT22;42045;52.986;6.014;2023-09-07T11:50:03;28.60;93.70
56162;DHT22;42045;52.986;6.014;2023-09-07T11:52:28;28.60;93.60
56162;DHT22;42045;52.986;6.014;2023-09-07T11:54:54;28.70;94.40
56162;DHT22;42045;52.986;6.014;2023-09-07T11:57:20;28.80;94.30
56162;DHT22;42045;52.986;6.014;2023-09-07T11:59:45;28.70;93.50
56162;DHT22;42045;52.986;6.014;2023-09-07T12:02:11;28.80;94.20
56162;DHT22;42045;52.986;6.014;2023-09-07T12:04:40;28.90;94.10
56162;DHT22;42045;52.986;6.014;2023-09-07T12:07:06;28.90;92.70
56162;DHT22;42045;52.986;6.014;2023-09-07T12:09:31;28.90;92.70
56162;DHT22;42045;52.986;6.014;2023-09-07T12:11:57;28.80;92.30
56162;DHT22;42045;52.986;6.014;2023-09-07T12:14:23;28.80;92.40
56162;DHT22;42045;52.986;6.014;2023-09-07T12:16:49;28.80;92.30
56162;DHT22;42045;52.986;6.014;2023-09-07T12:19:14;28.80;92.10
56162;DHT22;42045;52.986;6.014;2023-09-07T12:21:40;28.70;92.50
56162;DHT22;42045;52.986;6.014;2023-09-07T12:24:08;28.70;93.00
56162;DHT22;42045;52.986;6.014;2023-09-07T12:26:33;28.60;93.70
56162;DHT22;42045;52.986;6.014;2023-09-07T12:28:59;28.60;92.90
56162;DHT22;42045;52.986;6.014;2023-09-07T12:31:25;28.60;92.40
56162;DHT22;42045;52.986;6.014;2023-09-07T12:33:51;28.60;92.80
56162;DHT22;42045;52.986;6.014;2023-09-07T12:36:17;28.70;92.30
56162;DHT22;42045;52.986;6.014;2023-09-07T12:38:43;28.70;91.70
56162;DHT22;42045;52.986;6.014;2023-09-07T12:41:08;28.80;92.20
56162;DHT22;42045;52.986;6.014;2023-09-07T12:43:34;28.90;92.30
56162;DHT22;42045;52.986;6.014;2023-09-07T12:46:00;28.90;92.90
56162;DHT22;42045;52.986;6.014;2023-09-07T12:48:25;29.00;92.90
56162;DHT22;42045;52.986;6.014;2023-09-07T12:50:51;29.00;92.00
56162;DHT22;42045;52.986;6.014;2023-09-07T12:53:17;29.00;92.00
56162;DHT22;42045;52.986;6.014;2023-09-07T12:55:43;29.00;92.20
56162;DHT22;42045;52.986;6.014;2023-09-07T12:58:08;29.10;92.70
56162;DHT22;42045;52.986;6.014;2023-09-07T13:00:34;29.10;91.60
56162;DHT22;42045;52.986;6.014;2023-09-07T13:02:59;29.10;91.50
56162;DHT22;42045;52.986;6.014;2023-09-07T13:05:25;29.10;90.80
56162;DHT22;42045;52.986;6.014;2023-09-07T13:07:51;29.10;90.70
56162;DHT22;42045;52.986;6.014;2023-09-07T13:10:17;29.10;91.20
56162;DHT22;42045;52.986;6.014;2023-09-07T13:12:44;29.00;91.20
56162;DHT22;42045;52.986;6.014;2023-09-07T13:15:09;29.10;91.20
56162;DHT22;42045;52.986;6.014;2023-09-07T13:17:35;29.10;90.20
56162;DHT22;42045;52.986;6.014;2023-09-07T13:20:01;29.20;90.70
56162;DHT22;42045;52.986;6.014;2023-09-07T13:22:26;29.20;90.30
56162;DHT22;42045;52.986;6.014;2023-09-07T13:24:52;29.20;90.50
56162;DHT22;42045;52.986;6.014;2023-09-07T13:27:18;29.20;90.60
56162;DHT22;42045;52.986;6.014;2023-09-07T13:29:43;29.20;91.10
56162;DHT22;42045;52.986;6.014;2023-09-07T13:32:09;29.20;91.10
56162;DHT22;42045;52.986;6.014;2023-09-07T13:34:34;29.30;91.00
56162;DHT22;42045;52.986;6.014;2023-09-07T13:37:00;29.20;90.80
56162;DHT22;42045;52.986;6.014;2023-09-07T13:39:26;29.20;90.30
56162;DHT22;42045;52.986;6.014;2023-09-07T13:41:51;29.20;90.90
56162;DHT22;42045;52.986;6.014;2023-09-07T13:44:17;29.20;90.50
56162;DHT22;42045;52.986;6.014;2023-09-07T13:46:46;29.20;90.50
56162;DHT22;42045;52.986;6.014;2023-09-07T13:49:12;29.20;90.70
56162;DHT22;42045;52.986;6.014;2023-09-07T13:51:39;29.30;91.40
56162;DHT22;42045;52.986;6.014;2023-09-07T13:54:05;29.20;90.80
56162;DHT22;42045;52.986;6.014;2023-09-07T13:56:32;29.20;89.90
56162;DHT22;42045;52.986;6.014;2023-09-07T13:58:58;29.20;90.40
56162;DHT22;42045;52.986;6.014;2023-09-07T14:01:24;29.30;90.00
56162;DHT22;42045;52.986;6.014;2023-09-07T14:03:50;29.30;88.30
56162;DHT22;42045;52.986;6.014;2023-09-07T14:06:16;29.20;87.40
56162;DHT22;42045;52.986;6.014;2023-09-07T14:08:43;29.10;87.50
56162;DHT22;42045;52.986;6.014;2023-09-07T14:11:09;29.10;87.70
56162;DHT22;42045;52.986;6.014;2023-09-07T14:13:35;29.10;90.00
56162;DHT22;42045;52.986;6.014;2023-09-07T14:16:01;29.10;90.00
56162;DHT22;42045;52.986;6.014;2023-09-07T14:18:27;29.10;89.50
56162;DHT22;42045;52.986;6.014;2023-09-07T14:20:52;29.00;89.40
56162;DHT22;42045;52.986;6.014;2023-09-07T14:23:18;29.00;87.90
56162;DHT22;42045;52.986;6.014;2023-09-07T14:25:46;28.90;88.70
56162;DHT22;42045;52.986;6.014;2023-09-07T14:28:13;28.90;88.60
56162;DHT22;42045;52.986;6.014;2023-09-07T14:30:39;28.90;89.10
56162;DHT22;42045;52.986;6.014;2023-09-07T14:33:04;28.80;90.00
56162;DHT22;42045;52.986;6.014;2023-09-07T14:35:30;28.80;89.50
56162;DHT22;42045;52.986;6.014;2023-09-07T14:37:56;28.80;90.10
56162;DHT22;42045;52.986;6.014;2023-09-07T14:40:21;28.90;89.80
56162;DHT22;42045;52.986;6.014;2023-09-07T14:42:49;28.80;89.00
56162;DHT22;42045;52.986;6.014;2023-09-07T14:45:16;28.80;89.50
56162;DHT22;42045;52.986;6.014;2023-09-07T14:47:41;28.80;90.60
56162;DHT22;42045;52.986;6.014;2023-09-07T14:50:08;28.70;90.50
56162;DHT22;42045;52.986;6.014;2023-09-07T14:52:34;28.70;90.70
56162;DHT22;42045;52.986;6.014;2023-09-07T14:55:06;28.70;91.10
56162;DHT22;42045;52.986;6.014;2023-09-07T14:57:32;28.60;90.80
56162;DHT22;42045;52.986;6.014;2023-09-07T14:59:59;28.60;91.00
56162;DHT22;42045;52.986;6.014;2023-09-07T15:02:24;28.60;91.10
56162;DHT22;42045;52.986;6.014;2023-09-07T15:04:50;28.60;91.10
56162;DHT22;42045;52.986;6.014;2023-09-07T15:07:16;28.60;90.60
56162;DHT22;42045;52.986;6.014;2023-09-07T15:09:42;28.60;91.40
56162;DHT22;42045;52.986;6.014;2023-09-07T15:12:07;28.60;91.00
56162;DHT22;42045;52.986;6.014;2023-09-07T15:14:33;28.50;91.20
56162;DHT22;42045;52.986;6.014;2023-09-07T15:16:59;28.50;91.30
56162;DHT22;42045;52.986;6.014;2023-09-07T15:19:24;28.50;91.40
56162;DHT22;42045;52.986;6.014;2023-09-07T15:21:50;28.50;91.80
56162;DHT22;42045;52.986;6.014;2023-09-07T15:24:17;28.50;92.10
56162;DHT22;42045;52.986;6.014;2023-09-07T15:26:44;28.40;91.60